AGGH

Honiara International Airport

Honiara, Solomon Islands
TAF AGGH 162310Z 1700/1724 05012KT 9999 SCT019 PROB30 INTER 1702/1706 5000 TSSH BKN018 FEW019CB T 31 32 30 28 Q 1008 1006 1005 1007
Issued Valid From Valid To
Jan-16 @ 23:10 UTC
(6 hours ago)
Jan-17 @ 00:00 UTC
(5 hours ago)
Jan-18 @ 00:00 UTC
(in 19 hours)
Jan-17 @ 00:00 to Jan-18 @ 00:00
TAF AGGH 162310Z 1700/1724 05012KT 9999 SCT019
Wind Visibility Clouds
50° at 12 knots 10,000+ meters
  • Scattered at 1,900' AGL
Temporary  (Probability 30%) Jan-17 @ 02:00 to Jan-17 @ 06:00
PROB30 INTER 1702/1706 5000 TSSH BKN018 FEW019CB T 31 32 30 28 Q 1008 1006 1005 1007
Visibility Clouds Conditions
5,005 meters
  • Broken at 1,800' AGL
  • Few at 1,900' AGL
  • Thunderstorm
TAF AGGH 162310Z 1700/1724 05012KT 9999 SCT019 PROB30 INTER 1702/1706 5000 TSSH BKN018 FEW019CB T 31 32 30 28 Q 1008 1006 1005 1007
Issued Jan-16 @ 23:10 UTC
(6 hours ago)
Valid From Jan-17 @ 00:00 UTC
(5 hours ago)
Valid To Jan-18 @ 00:00 UTC
(in 19 hours)
Jan-17 @ 00:00 - Jan-18 @ 00:00
Wind Visibility
50° at 12 knots 10,000+ meters
Clouds
  • Scattered at 1,900' AGL
Probability 30% Temporary Jan-17 @ 02:00 - Jan-17 @ 06:00
Clouds
  • Broken at 1,800' AGL
  • Few at 1,900' AGL
Conditions
  • Thunderstorm